sensor_id;sensor_type;location;lat;lon;timestamp;P1;durP1;ratioP1;P2;durP2;ratioP2
65871;SDS011;52653;50.080;21.992;2022-11-25T00:01:27;39.00;;;21.00;;
65871;SDS011;52653;50.080;21.992;2022-11-25T00:04:00;33.10;;;18.70;;
65871;SDS011;52653;50.080;21.992;2022-11-25T00:06:33;35.20;;;20.10;;
65871;SDS011;52653;50.080;21.992;2022-11-25T00:09:05;36.80;;;20.30;;
65871;SDS011;52653;50.080;21.992;2022-11-25T00:11:41;36.00;;;19.80;;
65871;SDS011;52653;50.080;21.992;2022-11-25T00:14:13;36.70;;;20.20;;
65871;SDS011;52653;50.080;21.992;2022-11-25T00:16:45;37.80;;;21.10;;
65871;SDS011;52653;50.080;21.992;2022-11-25T00:19:17;35.40;;;18.90;;
65871;SDS011;52653;50.080;21.992;2022-11-25T00:21:49;35.80;;;19.40;;
65871;SDS011;52653;50.080;21.992;2022-11-25T00:24:20;34.00;;;19.60;;
65871;SDS011;52653;50.080;21.992;2022-11-25T00:26:52;34.60;;;19.70;;
65871;SDS011;52653;50.080;21.992;2022-11-25T00:29:24;32.10;;;17.50;;
65871;SDS011;52653;50.080;21.992;2022-11-25T00:31:57;38.10;;;19.30;;
65871;SDS011;52653;50.080;21.992;2022-11-25T00:34:29;29.50;;;18.20;;
65871;SDS011;52653;50.080;21.992;2022-11-25T00:37:01;33.80;;;19.10;;
65871;SDS011;52653;50.080;21.992;2022-11-25T00:39:33;30.60;;;17.10;;
65871;SDS011;52653;50.080;21.992;2022-11-25T00:42:05;32.40;;;17.50;;
65871;SDS011;52653;50.080;21.992;2022-11-25T00:44:55;34.10;;;19.90;;
65871;SDS011;52653;50.080;21.992;2022-11-25T00:47:27;39.00;;;21.20;;
65871;SDS011;52653;50.080;21.992;2022-11-25T00:49:59;34.00;;;20.40;;
65871;SDS011;52653;50.080;21.992;2022-11-25T00:52:31;36.80;;;20.90;;
65871;SDS011;52653;50.080;21.992;2022-11-25T00:55:05;38.60;;;22.50;;
65871;SDS011;52653;50.080;21.992;2022-11-25T00:57:38;34.50;;;20.50;;
65871;SDS011;52653;50.080;21.992;2022-11-25T01:00:11;36.60;;;21.20;;
65871;SDS011;52653;50.080;21.992;2022-11-25T01:02:43;38.30;;;23.30;;
65871;SDS011;52653;50.080;21.992;2022-11-25T01:05:17;38.30;;;22.90;;
65871;SDS011;52653;50.080;21.992;2022-11-25T01:07:48;37.30;;;22.70;;
65871;SDS011;52653;50.080;21.992;2022-11-25T01:10:21;37.80;;;22.40;;
65871;SDS011;52653;50.080;21.992;2022-11-25T01:12:53;40.10;;;23.20;;
65871;SDS011;52653;50.080;21.992;2022-11-25T01:15:25;37.70;;;22.80;;
65871;SDS011;52653;50.080;21.992;2022-11-25T01:17:56;36.30;;;22.40;;
65871;SDS011;52653;50.080;21.992;2022-11-25T01:20:28;36.20;;;21.60;;
65871;SDS011;52653;50.080;21.992;2022-11-25T01:23:00;36.40;;;20.90;;
65871;SDS011;52653;50.080;21.992;2022-11-25T01:25:35;36.80;;;21.90;;
65871;SDS011;52653;50.080;21.992;2022-11-25T01:28:07;35.00;;;20.80;;
65871;SDS011;52653;50.080;21.992;2022-11-25T01:30:39;32.60;;;19.50;;
65871;SDS011;52653;50.080;21.992;2022-11-25T01:33:10;34.00;;;20.80;;
65871;SDS011;52653;50.080;21.992;2022-11-25T01:35:42;34.40;;;20.80;;
65871;SDS011;52653;50.080;21.992;2022-11-25T01:38:14;28.90;;;18.30;;
65871;SDS011;52653;50.080;21.992;2022-11-25T01:40:46;30.40;;;19.20;;
65871;SDS011;52653;50.080;21.992;2022-11-25T01:43:18;31.80;;;18.80;;
65871;SDS011;52653;50.080;21.992;2022-11-25T01:45:50;31.90;;;18.80;;
65871;SDS011;52653;50.080;21.992;2022-11-25T01:48:25;28.30;;;18.50;;
65871;SDS011;52653;50.080;21.992;2022-11-25T01:51:00;30.60;;;18.30;;
65871;SDS011;52653;50.080;21.992;2022-11-25T01:53:32;30.10;;;17.90;;
65871;SDS011;52653;50.080;21.992;2022-11-25T01:56:04;25.30;;;17.30;;
65871;SDS011;52653;50.080;21.992;2022-11-25T01:58:37;26.90;;;16.60;;
65871;SDS011;52653;50.080;21.992;2022-11-25T02:01:10;26.40;;;16.60;;
65871;SDS011;52653;50.080;21.992;2022-11-25T02:03:43;26.20;;;17.50;;
65871;SDS011;52653;50.080;21.992;2022-11-25T02:06:19;27.60;;;17.90;;
65871;SDS011;52653;50.080;21.992;2022-11-25T02:08:56;29.00;;;18.10;;
65871;SDS011;52653;50.080;21.992;2022-11-25T02:11:33;28.00;;;18.30;;
65871;SDS011;52653;50.080;21.992;2022-11-25T02:14:07;30.10;;;19.60;;
65871;SDS011;52653;50.080;21.992;2022-11-25T02:16:41;30.10;;;18.50;;
65871;SDS011;52653;50.080;21.992;2022-11-25T02:19:15;30.20;;;18.40;;
65871;SDS011;52653;50.080;21.992;2022-11-25T02:21:53;31.50;;;19.90;;
65871;SDS011;52653;50.080;21.992;2022-11-25T02:24:31;30.10;;;19.20;;
65871;SDS011;52653;50.080;21.992;2022-11-25T02:27:09;29.60;;;19.30;;
65871;SDS011;52653;50.080;21.992;2022-11-25T02:29:43;33.60;;;19.80;;
65871;SDS011;52653;50.080;21.992;2022-11-25T02:32:15;31.70;;;20.50;;
65871;SDS011;52653;50.080;21.992;2022-11-25T02:34:52;31.90;;;19.20;;
65871;SDS011;52653;50.080;21.992;2022-11-25T02:37:24;32.10;;;20.30;;
65871;SDS011;52653;50.080;21.992;2022-11-25T02:39:57;34.40;;;21.70;;
65871;SDS011;52653;50.080;21.992;2022-11-25T02:42:29;35.30;;;21.80;;
65871;SDS011;52653;50.080;21.992;2022-11-25T02:45:02;35.00;;;21.00;;
65871;SDS011;52653;50.080;21.992;2022-11-25T02:47:34;37.90;;;21.40;;
65871;SDS011;52653;50.080;21.992;2022-11-25T02:50:07;33.00;;;21.00;;
65871;SDS011;52653;50.080;21.992;2022-11-25T02:52:41;33.50;;;21.90;;
65871;SDS011;52653;50.080;21.992;2022-11-25T02:55:13;35.50;;;21.40;;
65871;SDS011;52653;50.080;21.992;2022-11-25T02:57:46;31.90;;;19.90;;
65871;SDS011;52653;50.080;21.992;2022-11-25T03:00:19;33.20;;;20.10;;
65871;SDS011;52653;50.080;21.992;2022-11-25T03:02:51;34.90;;;22.10;;
65871;SDS011;52653;50.080;21.992;2022-11-25T03:05:24;32.10;;;20.40;;
65871;SDS011;52653;50.080;21.992;2022-11-25T03:07:56;34.90;;;20.50;;
65871;SDS011;52653;50.080;21.992;2022-11-25T03:10:28;36.10;;;21.80;;
65871;SDS011;52653;50.080;21.992;2022-11-25T03:13:01;32.30;;;20.80;;
65871;SDS011;52653;50.080;21.992;2022-11-25T03:15:34;36.70;;;23.00;;
65871;SDS011;52653;50.080;21.992;2022-11-25T03:18:06;36.20;;;22.20;;
65871;SDS011;52653;50.080;21.992;2022-11-25T03:20:38;39.10;;;23.30;;
65871;SDS011;52653;50.080;21.992;2022-11-25T03:23:10;40.00;;;24.20;;
65871;SDS011;52653;50.080;21.992;2022-11-25T03:25:41;36.80;;;23.20;;
65871;SDS011;52653;50.080;21.992;2022-11-25T03:28:13;39.20;;;23.50;;
65871;SDS011;52653;50.080;21.992;2022-11-25T03:30:45;37.60;;;22.70;;
65871;SDS011;52653;50.080;21.992;2022-11-25T03:33:17;35.80;;;21.30;;
65871;SDS011;52653;50.080;21.992;2022-11-25T03:35:49;35.50;;;21.30;;
65871;SDS011;52653;50.080;21.992;2022-11-25T03:38:21;35.40;;;20.70;;
65871;SDS011;52653;50.080;21.992;2022-11-25T03:40:53;37.80;;;22.80;;
65871;SDS011;52653;50.080;21.992;2022-11-25T03:43:25;39.90;;;21.60;;
65871;SDS011;52653;50.080;21.992;2022-11-25T03:45:57;36.70;;;21.20;;
65871;SDS011;52653;50.080;21.992;2022-11-25T03:48:29;37.20;;;22.70;;
65871;SDS011;52653;50.080;21.992;2022-11-25T03:51:01;35.30;;;21.10;;
65871;SDS011;52653;50.080;21.992;2022-11-25T03:53:34;38.00;;;22.90;;
65871;SDS011;52653;50.080;21.992;2022-11-25T03:56:07;39.60;;;22.90;;
65871;SDS011;52653;50.080;21.992;2022-11-25T03:58:39;38.70;;;23.30;;
65871;SDS011;52653;50.080;21.992;2022-11-25T04:01:12;46.10;;;24.20;;
65871;SDS011;52653;50.080;21.992;2022-11-25T04:03:44;40.40;;;23.70;;
65871;SDS011;52653;50.080;21.992;2022-11-25T04:06:16;39.60;;;23.80;;
65871;SDS011;52653;50.080;21.992;2022-11-25T04:08:48;40.50;;;23.70;;
65871;SDS011;52653;50.080;21.992;2022-11-25T04:11:20;41.20;;;22.90;;
65871;SDS011;52653;50.080;21.992;2022-11-25T04:14:13;38.00;;;22.00;;
65871;SDS011;52653;50.080;21.992;2022-11-25T04:16:45;39.90;;;23.50;;
65871;SDS011;52653;50.080;21.992;2022-11-25T04:19:18;35.00;;;21.10;;
65871;SDS011;52653;50.080;21.992;2022-11-25T04:21:50;33.40;;;21.00;;
65871;SDS011;52653;50.080;21.992;2022-11-25T04:24:23;36.40;;;21.50;;
65871;SDS011;52653;50.080;21.992;2022-11-25T04:26:55;32.20;;;19.80;;
65871;SDS011;52653;50.080;21.992;2022-11-25T04:29:27;35.90;;;20.40;;
65871;SDS011;52653;50.080;21.992;2022-11-25T04:32:00;36.30;;;20.50;;
65871;SDS011;52653;50.080;21.992;2022-11-25T04:34:33;34.00;;;20.80;;
65871;SDS011;52653;50.080;21.992;2022-11-25T04:37:05;37.90;;;21.50;;
65871;SDS011;52653;50.080;21.992;2022-11-25T04:39:37;36.60;;;21.60;;
65871;SDS011;52653;50.080;21.992;2022-11-25T04:42:16;34.20;;;20.90;;
65871;SDS011;52653;50.080;21.992;2022-11-25T04:45:07;37.00;;;21.80;;
65871;SDS011;52653;50.080;21.992;2022-11-25T04:48:00;38.10;;;21.90;;
65871;SDS011;52653;50.080;21.992;2022-11-25T04:50:33;39.90;;;24.10;;
65871;SDS011;52653;50.080;21.992;2022-11-25T04:53:09;38.10;;;22.40;;
65871;SDS011;52653;50.080;21.992;2022-11-25T04:55:42;38.40;;;23.60;;
65871;SDS011;52653;50.080;21.992;2022-11-25T04:58:16;35.40;;;21.50;;
65871;SDS011;52653;50.080;21.992;2022-11-25T05:01:08;35.20;;;19.80;;
65871;SDS011;52653;50.080;21.992;2022-11-25T05:03:42;33.90;;;21.30;;
65871;SDS011;52653;50.080;21.992;2022-11-25T05:06:21;33.10;;;19.90;;
65871;SDS011;52653;50.080;21.992;2022-11-25T05:08:53;33.70;;;20.00;;
65871;SDS011;52653;50.080;21.992;2022-11-25T05:11:26;35.10;;;22.30;;
65871;SDS011;52653;50.080;21.992;2022-11-25T05:13:58;35.60;;;21.60;;
65871;SDS011;52653;50.080;21.992;2022-11-25T05:16:30;37.00;;;22.00;;
65871;SDS011;52653;50.080;21.992;2022-11-25T05:19:02;37.60;;;23.00;;
65871;SDS011;52653;50.080;21.992;2022-11-25T05:21:34;40.90;;;23.90;;
65871;SDS011;52653;50.080;21.992;2022-11-25T05:24:07;42.90;;;24.00;;
65871;SDS011;52653;50.080;21.992;2022-11-25T05:26:39;39.90;;;22.90;;
65871;SDS011;52653;50.080;21.992;2022-11-25T05:29:12;40.30;;;22.80;;
65871;SDS011;52653;50.080;21.992;2022-11-25T05:31:44;37.50;;;22.40;;
65871;SDS011;52653;50.080;21.992;2022-11-25T05:34:16;48.60;;;27.90;;
65871;SDS011;52653;50.080;21.992;2022-11-25T05:36:49;50.90;;;29.20;;
65871;SDS011;52653;50.080;21.992;2022-11-25T05:39:21;47.60;;;26.40;;
65871;SDS011;52653;50.080;21.992;2022-11-25T05:42:25;44.90;;;25.50;;
65871;SDS011;52653;50.080;21.992;2022-11-25T05:45:02;45.40;;;26.30;;
65871;SDS011;52653;50.080;21.992;2022-11-25T05:47:36;46.70;;;26.30;;
65871;SDS011;52653;50.080;21.992;2022-11-25T05:50:08;47.50;;;27.20;;
65871;SDS011;52653;50.080;21.992;2022-11-25T05:52:40;47.70;;;30.10;;
65871;SDS011;52653;50.080;21.992;2022-11-25T05:55:12;47.90;;;29.70;;
65871;SDS011;52653;50.080;21.992;2022-11-25T05:57:46;52.50;;;31.60;;
65871;SDS011;52653;50.080;21.992;2022-11-25T06:00:18;43.50;;;26.60;;
65871;SDS011;52653;50.080;21.992;2022-11-25T06:02:54;44.70;;;26.20;;
65871;SDS011;52653;50.080;21.992;2022-11-25T06:05:27;42.60;;;24.90;;
65871;SDS011;52653;50.080;21.992;2022-11-25T06:07:59;42.50;;;25.60;;
65871;SDS011;52653;50.080;21.992;2022-11-25T06:10:32;44.40;;;27.00;;
65871;SDS011;52653;50.080;21.992;2022-11-25T06:13:07;41.90;;;25.10;;
65871;SDS011;52653;50.080;21.992;2022-11-25T06:15:40;45.30;;;26.10;;
65871;SDS011;52653;50.080;21.992;2022-11-25T06:18:14;52.00;;;30.20;;
65871;SDS011;52653;50.080;21.992;2022-11-25T06:20:55;43.50;;;26.40;;
65871;SDS011;52653;50.080;21.992;2022-11-25T06:23:28;58.60;;;35.90;;
65871;SDS011;52653;50.080;21.992;2022-11-25T06:26:05;72.80;;;44.20;;
65871;SDS011;52653;50.080;21.992;2022-11-25T06:31:11;55.40;;;35.00;;
65871;SDS011;52653;50.080;21.992;2022-11-25T06:34:08;52.50;;;31.10;;
65871;SDS011;52653;50.080;21.992;2022-11-25T06:36:41;48.00;;;29.40;;
65871;SDS011;52653;50.080;21.992;2022-11-25T06:39:13;48.80;;;28.70;;
65871;SDS011;52653;50.080;21.992;2022-11-25T06:41:45;48.40;;;28.70;;
65871;SDS011;52653;50.080;21.992;2022-11-25T06:44:16;46.30;;;28.30;;
65871;SDS011;52653;50.080;21.992;2022-11-25T06:46:48;45.60;;;26.50;;
65871;SDS011;52653;50.080;21.992;2022-11-25T06:49:21;47.90;;;28.00;;
65871;SDS011;52653;50.080;21.992;2022-11-25T06:51:55;43.00;;;26.40;;
65871;SDS011;52653;50.080;21.992;2022-11-25T06:54:27;42.40;;;27.10;;
65871;SDS011;52653;50.080;21.992;2022-11-25T06:56:59;43.20;;;26.60;;
65871;SDS011;52653;50.080;21.992;2022-11-25T06:59:31;41.90;;;26.80;;
65871;SDS011;52653;50.080;21.992;2022-11-25T07:02:03;45.30;;;26.60;;
65871;SDS011;52653;50.080;21.992;2022-11-25T07:04:35;43.90;;;27.10;;
65871;SDS011;52653;50.080;21.992;2022-11-25T07:07:08;42.60;;;26.70;;
65871;SDS011;52653;50.080;21.992;2022-11-25T07:09:40;45.10;;;27.90;;
65871;SDS011;52653;50.080;21.992;2022-11-25T07:12:12;45.90;;;29.10;;
65871;SDS011;52653;50.080;21.992;2022-11-25T07:14:44;46.70;;;28.50;;
65871;SDS011;52653;50.080;21.992;2022-11-25T07:17:19;46.70;;;27.30;;
65871;SDS011;52653;50.080;21.992;2022-11-25T07:19:50;43.60;;;25.80;;
65871;SDS011;52653;50.080;21.992;2022-11-25T07:22:22;43.40;;;25.60;;
65871;SDS011;52653;50.080;21.992;2022-11-25T07:24:54;45.20;;;25.30;;
65871;SDS011;52653;50.080;21.992;2022-11-25T07:27:26;43.20;;;26.50;;
65871;SDS011;52653;50.080;21.992;2022-11-25T07:29:58;40.60;;;24.10;;
65871;SDS011;52653;50.080;21.992;2022-11-25T07:32:50;39.80;;;25.40;;
65871;SDS011;52653;50.080;21.992;2022-11-25T07:35:22;41.40;;;25.70;;
65871;SDS011;52653;50.080;21.992;2022-11-25T07:37:54;42.00;;;25.80;;
65871;SDS011;52653;50.080;21.992;2022-11-25T07:40:27;43.60;;;25.90;;
65871;SDS011;52653;50.080;21.992;2022-11-25T07:42:58;41.30;;;26.80;;
65871;SDS011;52653;50.080;21.992;2022-11-25T07:45:30;39.90;;;24.60;;
65871;SDS011;52653;50.080;21.992;2022-11-25T07:48:11;43.70;;;28.20;;
65871;SDS011;52653;50.080;21.992;2022-11-25T07:50:43;48.20;;;28.80;;
65871;SDS011;52653;50.080;21.992;2022-11-25T07:53:18;42.60;;;26.80;;
65871;SDS011;52653;50.080;21.992;2022-11-25T07:55:50;46.10;;;25.50;;
65871;SDS011;52653;50.080;21.992;2022-11-25T07:58:22;44.50;;;27.80;;
65871;SDS011;52653;50.080;21.992;2022-11-25T08:00:54;43.90;;;28.20;;
65871;SDS011;52653;50.080;21.992;2022-11-25T08:03:25;42.20;;;27.70;;
65871;SDS011;52653;50.080;21.992;2022-11-25T08:05:59;41.90;;;25.90;;
65871;SDS011;52653;50.080;21.992;2022-11-25T08:08:32;38.50;;;25.90;;
65871;SDS011;52653;50.080;21.992;2022-11-25T08:11:06;43.70;;;27.30;;
65871;SDS011;52653;50.080;21.992;2022-11-25T08:13:39;40.20;;;25.60;;
65871;SDS011;52653;50.080;21.992;2022-11-25T08:16:12;42.20;;;26.50;;
65871;SDS011;52653;50.080;21.992;2022-11-25T08:18:45;42.30;;;27.40;;
65871;SDS011;52653;50.080;21.992;2022-11-25T08:21:17;43.80;;;28.30;;
65871;SDS011;52653;50.080;21.992;2022-11-25T08:23:49;50.50;;;32.60;;
65871;SDS011;52653;50.080;21.992;2022-11-25T08:26:23;65.60;;;42.10;;
65871;SDS011;52653;50.080;21.992;2022-11-25T08:28:58;62.90;;;41.70;;
65871;SDS011;52653;50.080;21.992;2022-11-25T08:31:31;50.40;;;32.30;;
65871;SDS011;52653;50.080;21.992;2022-11-25T08:34:06;52.50;;;33.70;;
65871;SDS011;52653;50.080;21.992;2022-11-25T08:36:40;42.00;;;28.00;;
65871;SDS011;52653;50.080;21.992;2022-11-25T08:39:17;45.40;;;28.00;;
65871;SDS011;52653;50.080;21.992;2022-11-25T08:42:09;44.50;;;28.00;;
65871;SDS011;52653;50.080;21.992;2022-11-25T08:44:41;45.00;;;32.00;;
65871;SDS011;52653;50.080;21.992;2022-11-25T08:47:13;52.10;;;34.80;;
65871;SDS011;52653;50.080;21.992;2022-11-25T08:49:45;47.60;;;31.50;;
65871;SDS011;52653;50.080;21.992;2022-11-25T08:52:21;51.20;;;32.30;;
65871;SDS011;52653;50.080;21.992;2022-11-25T08:54:53;45.30;;;30.40;;
65871;SDS011;52653;50.080;21.992;2022-11-25T08:57:25;45.50;;;30.90;;
65871;SDS011;52653;50.080;21.992;2022-11-25T08:59:57;44.90;;;29.00;;
65871;SDS011;52653;50.080;21.992;2022-11-25T09:02:29;46.40;;;29.30;;
65871;SDS011;52653;50.080;21.992;2022-11-25T09:05:01;45.90;;;29.40;;
65871;SDS011;52653;50.080;21.992;2022-11-25T09:07:34;48.90;;;30.90;;
65871;SDS011;52653;50.080;21.992;2022-11-25T09:10:07;46.30;;;30.10;;
65871;SDS011;52653;50.080;21.992;2022-11-25T09:12:43;44.80;;;29.20;;
65871;SDS011;52653;50.080;21.992;2022-11-25T09:15:15;45.40;;;27.50;;
65871;SDS011;52653;50.080;21.992;2022-11-25T09:17:48;43.30;;;27.20;;
65871;SDS011;52653;50.080;21.992;2022-11-25T09:20:26;43.10;;;28.30;;
65871;SDS011;52653;50.080;21.992;2022-11-25T09:22:58;38.40;;;25.10;;
65871;SDS011;52653;50.080;21.992;2022-11-25T09:25:31;42.40;;;27.10;;
65871;SDS011;52653;50.080;21.992;2022-11-25T09:28:04;42.10;;;27.60;;
65871;SDS011;52653;50.080;21.992;2022-11-25T09:30:36;46.00;;;30.20;;
65871;SDS011;52653;50.080;21.992;2022-11-25T09:33:08;47.50;;;30.20;;
65871;SDS011;52653;50.080;21.992;2022-11-25T09:35:41;46.60;;;31.20;;
65871;SDS011;52653;50.080;21.992;2022-11-25T09:38:13;44.80;;;29.00;;
65871;SDS011;52653;50.080;21.992;2022-11-25T09:40:46;44.30;;;29.90;;
65871;SDS011;52653;50.080;21.992;2022-11-25T09:43:25;46.80;;;31.50;;
65871;SDS011;52653;50.080;21.992;2022-11-25T09:46:27;54.70;;;35.20;;
65871;SDS011;52653;50.080;21.992;2022-11-25T09:49:19;49.70;;;30.40;;
65871;SDS011;52653;50.080;21.992;2022-11-25T09:52:11;51.80;;;30.40;;
65871;SDS011;52653;50.080;21.992;2022-11-25T09:54:50;54.60;;;32.20;;
65871;SDS011;52653;50.080;21.992;2022-11-25T09:57:28;49.30;;;30.40;;
65871;SDS011;52653;50.080;21.992;2022-11-25T10:00:13;49.60;;;31.20;;
65871;SDS011;52653;50.080;21.992;2022-11-25T10:02:50;54.00;;;33.90;;
65871;SDS011;52653;50.080;21.992;2022-11-25T10:05:31;54.50;;;34.30;;
65871;SDS011;52653;50.080;21.992;2022-11-25T10:08:09;48.60;;;33.20;;
65871;SDS011;52653;50.080;21.992;2022-11-25T10:10:46;49.50;;;33.50;;
65871;SDS011;52653;50.080;21.992;2022-11-25T10:13:23;46.70;;;31.10;;
65871;SDS011;52653;50.080;21.992;2022-11-25T10:16:03;50.10;;;31.40;;
65871;SDS011;52653;50.080;21.992;2022-11-25T10:18:47;60.20;;;34.70;;
65871;SDS011;52653;50.080;21.992;2022-11-25T10:21:25;70.60;;;42.70;;
65871;SDS011;52653;50.080;21.992;2022-11-25T10:23:58;62.20;;;40.70;;
65871;SDS011;52653;50.080;21.992;2022-11-25T10:26:34;65.40;;;40.50;;
65871;SDS011;52653;50.080;21.992;2022-11-25T10:29:30;67.10;;;40.50;;
65871;SDS011;52653;50.080;21.992;2022-11-25T10:32:18;62.40;;;37.00;;
65871;SDS011;52653;50.080;21.992;2022-11-25T10:34:53;63.40;;;37.30;;
65871;SDS011;52653;50.080;21.992;2022-11-25T10:37:30;80.50;;;45.10;;
65871;SDS011;52653;50.080;21.992;2022-11-25T10:40:12;83.50;;;47.20;;
65871;SDS011;52653;50.080;21.992;2022-11-25T10:42:45;104.60;;;56.70;;
65871;SDS011;52653;50.080;21.992;2022-11-25T10:45:17;80.00;;;46.90;;
65871;SDS011;52653;50.080;21.992;2022-11-25T10:47:59;86.60;;;42.30;;
65871;SDS011;52653;50.080;21.992;2022-11-25T10:50:50;73.50;;;38.70;;
65871;SDS011;52653;50.080;21.992;2022-11-25T10:53:32;74.00;;;39.40;;
65871;SDS011;52653;50.080;21.992;2022-11-25T10:56:09;70.80;;;33.40;;
65871;SDS011;52653;50.080;21.992;2022-11-25T10:58:47;66.70;;;34.00;;
65871;SDS011;52653;50.080;21.992;2022-11-25T11:01:21;75.80;;;32.80;;
65871;SDS011;52653;50.080;21.992;2022-11-25T11:04:02;70.70;;;32.90;;
65871;SDS011;52653;50.080;21.992;2022-11-25T11:06:41;82.30;;;34.40;;
65871;SDS011;52653;50.080;21.992;2022-11-25T11:09:32;75.30;;;38.80;;
65871;SDS011;52653;50.080;21.992;2022-11-25T11:12:14;82.30;;;41.50;;
65871;SDS011;52653;50.080;21.992;2022-11-25T11:14:50;87.50;;;42.00;;
65871;SDS011;52653;50.080;21.992;2022-11-25T11:17:28;91.40;;;41.00;;
65871;SDS011;52653;50.080;21.992;2022-11-25T11:22:55;91.00;;;40.50;;
65871;SDS011;52653;50.080;21.992;2022-11-25T11:25:37;85.00;;;36.00;;
65871;SDS011;52653;50.080;21.992;2022-11-25T11:31:15;77.80;;;34.60;;
65871;SDS011;52653;50.080;21.992;2022-11-25T11:33:52;74.60;;;33.90;;
65871;SDS011;52653;50.080;21.992;2022-11-25T11:36:39;82.90;;;35.80;;
65871;SDS011;52653;50.080;21.992;2022-11-25T11:42:05;82.40;;;36.70;;
65871;SDS011;52653;50.080;21.992;2022-11-25T11:44:48;85.50;;;36.00;;
65871;SDS011;52653;50.080;21.992;2022-11-25T11:47:33;82.70;;;37.00;;
65871;SDS011;52653;50.080;21.992;2022-11-25T11:50:27;100.80;;;39.60;;
65871;SDS011;52653;50.080;21.992;2022-11-25T11:53:03;92.20;;;38.00;;
65871;SDS011;52653;50.080;21.992;2022-11-25T11:55:51;91.90;;;35.80;;
65871;SDS011;52653;50.080;21.992;2022-11-25T11:58:51;102.10;;;37.70;;
65871;SDS011;52653;50.080;21.992;2022-11-25T12:01:42;99.00;;;38.70;;
65871;SDS011;52653;50.080;21.992;2022-11-25T12:04:25;96.50;;;38.40;;
65871;SDS011;52653;50.080;21.992;2022-11-25T12:07:02;101.30;;;39.60;;
65871;SDS011;52653;50.080;21.992;2022-11-25T12:09:41;99.20;;;39.20;;
65871;SDS011;52653;50.080;21.992;2022-11-25T12:12:18;99.80;;;41.80;;
65871;SDS011;52653;50.080;21.992;2022-11-25T12:14:54;101.00;;;40.60;;
65871;SDS011;52653;50.080;21.992;2022-11-25T12:17:36;99.20;;;44.20;;
65871;SDS011;52653;50.080;21.992;2022-11-25T12:20:16;115.90;;;45.80;;
65871;SDS011;52653;50.080;21.992;2022-11-25T12:22:57;113.80;;;45.50;;
65871;SDS011;52653;50.080;21.992;2022-11-25T12:25:35;117.40;;;47.20;;
65871;SDS011;52653;50.080;21.992;2022-11-25T12:28:10;115.80;;;47.50;;
65871;SDS011;52653;50.080;21.992;2022-11-25T12:30:53;119.80;;;47.00;;
65871;SDS011;52653;50.080;21.992;2022-11-25T12:33:38;132.10;;;51.40;;
65871;SDS011;52653;50.080;21.992;2022-11-25T12:36:16;132.20;;;47.90;;
65871;SDS011;52653;50.080;21.992;2022-11-25T12:38:52;130.40;;;51.70;;
65871;SDS011;52653;50.080;21.992;2022-11-25T12:41:31;125.90;;;50.70;;
65871;SDS011;52653;50.080;21.992;2022-11-25T12:44:11;128.00;;;52.90;;
65871;SDS011;52653;50.080;21.992;2022-11-25T12:46:48;134.60;;;55.30;;
65871;SDS011;52653;50.080;21.992;2022-11-25T12:49:24;127.00;;;52.80;;
65871;SDS011;52653;50.080;21.992;2022-11-25T12:55:11;107.10;;;47.60;;
65871;SDS011;52653;50.080;21.992;2022-11-25T12:57:53;98.00;;;44.00;;
65871;SDS011;52653;50.080;21.992;2022-11-25T13:01:02;95.30;;;44.40;;
65871;SDS011;52653;50.080;21.992;2022-11-25T13:04:02;89.50;;;42.20;;
65871;SDS011;52653;50.080;21.992;2022-11-25T13:07:17;95.90;;;45.60;;
65871;SDS011;52653;50.080;21.992;2022-11-25T13:09:59;99.30;;;44.30;;
65871;SDS011;52653;50.080;21.992;2022-11-25T13:13:08;99.70;;;46.10;;
65871;SDS011;52653;50.080;21.992;2022-11-25T13:15:52;101.00;;;47.80;;
65871;SDS011;52653;50.080;21.992;2022-11-25T13:18:28;99.30;;;45.90;;
65871;SDS011;52653;50.080;21.992;2022-11-25T13:21:06;95.80;;;44.80;;
65871;SDS011;52653;50.080;21.992;2022-11-25T13:23:42;84.40;;;41.70;;
65871;SDS011;52653;50.080;21.992;2022-11-25T13:32:32;63.60;;;31.90;;
65871;SDS011;52653;50.080;21.992;2022-11-25T13:38:33;60.30;;;32.40;;
65871;SDS011;52653;50.080;21.992;2022-11-25T13:41:21;59.10;;;31.80;;
65871;SDS011;52653;50.080;21.992;2022-11-25T13:44:25;63.30;;;34.10;;
65871;SDS011;52653;50.080;21.992;2022-11-25T13:47:23;55.60;;;29.50;;
65871;SDS011;52653;50.080;21.992;2022-11-25T13:50:02;61.80;;;33.10;;
65871;SDS011;52653;50.080;21.992;2022-11-25T13:52:41;51.10;;;28.60;;
65871;SDS011;52653;50.080;21.992;2022-11-25T13:55:23;63.50;;;36.90;;
65871;SDS011;52653;50.080;21.992;2022-11-25T13:58:03;56.10;;;33.90;;
65871;SDS011;52653;50.080;21.992;2022-11-25T14:03:55;48.60;;;28.30;;
65871;SDS011;52653;50.080;21.992;2022-11-25T14:06:44;49.20;;;30.30;;
65871;SDS011;52653;50.080;21.992;2022-11-25T14:09:33;44.60;;;28.30;;
65871;SDS011;52653;50.080;21.992;2022-11-25T14:12:18;43.10;;;24.90;;
65871;SDS011;52653;50.080;21.992;2022-11-25T14:15:09;47.00;;;29.50;;
65871;SDS011;52653;50.080;21.992;2022-11-25T14:21:14;46.20;;;27.90;;
65871;SDS011;52653;50.080;21.992;2022-11-25T14:24:00;49.40;;;27.10;;
65871;SDS011;52653;50.080;21.992;2022-11-25T14:26:43;46.70;;;27.20;;
65871;SDS011;52653;50.080;21.992;2022-11-25T14:29:20;53.30;;;29.70;;
65871;SDS011;52653;50.080;21.992;2022-11-25T14:31:58;54.30;;;30.40;;
65871;SDS011;52653;50.080;21.992;2022-11-25T14:34:35;47.70;;;28.70;;
65871;SDS011;52653;50.080;21.992;2022-11-25T14:37:12;51.30;;;30.00;;
65871;SDS011;52653;50.080;21.992;2022-11-25T14:39:48;53.10;;;33.20;;
65871;SDS011;52653;50.080;21.992;2022-11-25T14:42:25;56.40;;;30.00;;
65871;SDS011;52653;50.080;21.992;2022-11-25T14:45:02;57.30;;;30.80;;
65871;SDS011;52653;50.080;21.992;2022-11-25T14:47:51;56.40;;;31.20;;
65871;SDS011;52653;50.080;21.992;2022-11-25T14:50:23;60.90;;;34.20;;
65871;SDS011;52653;50.080;21.992;2022-11-25T14:53:05;68.50;;;37.90;;
65871;SDS011;52653;50.080;21.992;2022-11-25T14:55:38;62.70;;;35.80;;
65871;SDS011;52653;50.080;21.992;2022-11-25T14:58:11;67.90;;;37.90;;
65871;SDS011;52653;50.080;21.992;2022-11-25T15:00:50;70.50;;;38.10;;
65871;SDS011;52653;50.080;21.992;2022-11-25T15:03:28;73.90;;;40.90;;
65871;SDS011;52653;50.080;21.992;2022-11-25T15:06:01;75.60;;;39.90;;
65871;SDS011;52653;50.080;21.992;2022-11-25T15:08:39;89.10;;;45.10;;
65871;SDS011;52653;50.080;21.992;2022-11-25T15:11:13;83.80;;;44.80;;
65871;SDS011;52653;50.080;21.992;2022-11-25T15:13:50;86.60;;;43.90;;
65871;SDS011;52653;50.080;21.992;2022-11-25T15:16:30;80.10;;;39.90;;
65871;SDS011;52653;50.080;21.992;2022-11-25T15:19:05;75.90;;;39.40;;
65871;SDS011;52653;50.080;21.992;2022-11-25T15:21:45;85.80;;;41.50;;
65871;SDS011;52653;50.080;21.992;2022-11-25T15:24:44;87.40;;;41.20;;
65871;SDS011;52653;50.080;21.992;2022-11-25T15:27:23;85.60;;;40.00;;
65871;SDS011;52653;50.080;21.992;2022-11-25T15:29:57;78.60;;;36.90;;
65871;SDS011;52653;50.080;21.992;2022-11-25T15:32:30;75.20;;;38.70;;